Time;durP1;ratioP1;P1;durP2;ratioP2;P2;SDS_P1;SDS_P2;PMS_P1;PMS_P2;Temp;Humidity;BMP_temperature;BMP_pressure;BME280_temperature;BME280_humidity;BME280_pressure;Samples;Min_cycle;Max_cycle;Signal;HPM_P1;HPM_P2
2021/04/24 00:01:30;;;;;;;14.30;7.57;;;;;;;;;;5097261;28;20216;-56
2021/04/24 00:03:57;;;;;;;13.75;6.90;;;;;;;;;;5096446;28;20232;-54
2021/04/24 00:06:24;;;;;;;11.77;6.95;;;;;;;;;;5096558;28;20206;-54
2021/04/24 00:08:55;;;;;;;12.65;7.43;;;;;;;;;;5076551;28;20213;-56
2021/04/24 00:11:23;;;;;;;13.88;7.88;;;;;;;;;;5076231;28;20214;-54
2021/04/24 00:13:50;;;;;;;11.82;6.85;;;;;;;;;;5076147;28;20195;-55
2021/04/24 00:16:24;;;;;;;12.77;7.82;;;;;;;;;;5076135;28;20214;-56
2021/04/24 00:18:51;;;;;;;16.30;7.82;;;;;;;;;;5092151;28;20226;-52
2021/04/24 00:21:18;;;;;;;14.00;7.30;;;;;;;;;;5095688;28;20206;-55
2021/04/24 00:23:46;;;;;;;18.48;7.35;;;;;;;;;;5095542;28;20198;-51
2021/04/24 00:26:14;;;;;;;11.45;6.32;;;;;;;;;;5086393;28;20210;-54
2021/04/24 00:28:40;;;;;;;15.15;8.00;;;;;;;;;;5080443;28;20217;-58
2021/04/24 00:31:14;;;;;;;19.17;8.48;;;;;;;;;;5095756;28;20220;-55
2021/04/24 00:33:40;;;;;;;24.58;9.13;;;;;;;;;;5095313;28;20194;-52
2021/04/24 00:36:07;;;;;;;19.10;7.93;;;;;;;;;;5096014;28;20194;-54
2021/04/24 00:38:41;;;;;;;11.85;7.00;;;;;;;;;;5091982;28;20234;-49
2021/04/24 00:41:08;;;;;;;13.10;6.90;;;;;;;;;;5085289;28;20312;-50
2021/04/24 00:43:36;;;;;;;18.17;7.32;;;;;;;;;;5081589;28;20216;-54
2021/04/24 00:46:21;;;;;;;25.40;7.88;;;;;;;;;;5095664;28;20194;-56
2021/04/24 00:48:48;;;;;;;17.83;7.20;;;;;;;;;;5090002;28;20280;-54
2021/04/24 00:51:15;;;;;;;11.40;7.22;;;;;;;;;;5076520;28;20198;-55
2021/04/24 00:53:42;;;;;;;11.70;7.45;;;;;;;;;;5095707;28;20233;-54
2021/04/24 00:56:09;;;;;;;12.90;7.93;;;;;;;;;;5088809;28;20218;-52
2021/04/24 00:58:37;;;;;;;13.52;7.78;;;;;;;;;;5076196;28;20206;-56
2021/04/24 01:01:10;;;;;;;15.45;7.75;;;;;;;;;;5082098;28;20199;-56
2021/04/24 01:03:37;;;;;;;15.27;7.38;;;;;;;;;;5081948;28;20202;-51
2021/04/24 01:06:04;;;;;;;18.38;8.05;;;;;;;;;;5081598;28;20213;-52
2021/04/24 01:08:31;;;;;;;12.65;6.55;;;;;;;;;;5075463;28;20182;-57
2021/04/24 01:10:57;;;;;;;10.77;6.82;;;;;;;;;;5094388;28;20178;-55
2021/04/24 01:13:39;;;;;;;17.40;8.73;;;;;;;;;;5090372;28;20213;-54
2021/04/24 01:16:06;;;;;;;18.40;8.88;;;;;;;;;;5077758;28;20214;-54
2021/04/24 01:18:32;;;;;;;12.10;6.30;;;;;;;;;;5084229;28;20233;-50
2021/04/24 01:21:04;;;;;;;11.52;6.25;;;;;;;;;;5095001;28;20371;-55
2021/04/24 01:23:32;;;;;;;16.15;6.90;;;;;;;;;;5092583;28;20396;-53
2021/04/24 01:26:00;;;;;;;12.30;6.60;;;;;;;;;;5074834;28;20187;-57
2021/04/24 01:28:35;;;;;;;11.98;6.20;;;;;;;;;;5085873;28;20206;-51
2021/04/24 01:31:01;;;;;;;12.23;5.75;;;;;;;;;;5090103;28;20256;-53
2021/04/24 01:33:28;;;;;;;14.30;7.13;;;;;;;;;;5075279;28;20210;-51
2021/04/24 01:36:01;;;;;;;14.82;6.55;;;;;;;;;;5074932;28;20257;-50
2021/04/24 01:38:28;;;;;;;14.57;6.38;;;;;;;;;;5075459;28;20215;-50
2021/04/24 01:40:56;;;;;;;13.13;6.25;;;;;;;;;;5084014;28;20191;-57
2021/04/24 01:43:32;;;;;;;18.23;6.85;;;;;;;;;;5089531;28;20189;-54
2021/04/24 01:45:59;;;;;;;15.05;5.78;;;;;;;;;;5086725;28;20206;-53
2021/04/24 01:48:26;;;;;;;13.57;6.30;;;;;;;;;;5091212;28;20236;-55
2021/04/24 01:51:10;;;;;;;12.05;6.10;;;;;;;;;;5092873;28;20232;-52
2021/04/24 01:53:37;;;;;;;11.40;6.10;;;;;;;;;;5094341;28;20212;-57
2021/04/24 01:56:05;;;;;;;10.18;5.65;;;;;;;;;;5095047;28;20214;-53
2021/04/24 01:58:45;;;;;;;12.73;6.55;;;;;;;;;;5095395;28;20226;-58
2021/04/24 02:01:12;;;;;;;12.05;6.55;;;;;;;;;;5095339;28;20208;-55
2021/04/24 02:03:39;;;;;;;13.10;6.25;;;;;;;;;;5094920;28;20186;-55
2021/04/24 02:06:07;;;;;;;10.80;5.55;;;;;;;;;;5095109;28;20210;-50
2021/04/24 02:08:35;;;;;;;14.18;6.43;;;;;;;;;;5095276;28;20193;-52
2021/04/24 02:11:04;;;;;;;10.45;5.90;;;;;;;;;;5095468;28;20206;-55
2021/04/24 02:13:39;;;;;;;9.85;5.75;;;;;;;;;;5094871;28;20217;-55
2021/04/24 02:16:06;;;;;;;10.57;6.20;;;;;;;;;;5095229;28;20237;-57
2021/04/24 02:18:34;;;;;;;11.70;5.95;;;;;;;;;;5094476;28;20222;-56
2021/04/24 02:21:01;;;;;;;9.68;5.07;;;;;;;;;;5095300;28;20240;-55
2021/04/24 02:23:32;;;;;;;10.60;5.45;;;;;;;;;;5088425;28;20217;-55
2021/04/24 02:25:59;;;;;;;12.13;5.97;;;;;;;;;;5091369;28;20209;-58
2021/04/24 02:28:58;;;;;;;10.13;5.55;;;;;;;;;;5095031;28;20190;-47
2021/04/24 02:31:25;;;;;;;9.93;5.35;;;;;;;;;;5092678;28;20221;-53
2021/04/24 02:33:52;;;;;;;9.55;5.25;;;;;;;;;;5094237;28;20240;-52
2021/04/24 02:36:38;;;;;;;14.88;5.63;;;;;;;;;;5098351;28;20213;-50
2021/04/24 02:39:06;;;;;;;11.13;5.50;;;;;;;;;;5097977;28;20237;-52
2021/04/24 02:41:32;;;;;;;10.10;4.82;;;;;;;;;;5080995;28;20209;-53
2021/04/24 02:44:07;;;;;;;12.10;5.75;;;;;;;;;;5097835;28;20202;-53
2021/04/24 02:46:35;;;;;;;10.20;5.55;;;;;;;;;;5098730;28;20235;-46
2021/04/24 02:49:03;;;;;;;17.08;5.65;;;;;;;;;;5090064;28;20211;-53
2021/04/24 02:51:54;;;;;;;8.85;4.80;;;;;;;;;;5077975;28;20198;-53
2021/04/24 02:54:21;;;;;;;13.93;6.75;;;;;;;;;;5089327;28;20226;-55
2021/04/24 02:56:48;;;;;;;13.27;5.60;;;;;;;;;;5098262;28;20206;-56
2021/04/24 02:59:15;;;;;;;12.73;4.93;;;;;;;;;;5087302;28;20218;-53
2021/04/24 03:01:43;;;;;;;10.63;4.75;;;;;;;;;;5077860;28;20211;-59
2021/04/24 03:04:10;;;;;;;9.30;5.15;;;;;;;;;;5077463;28;20219;-55
2021/04/24 03:06:39;;;;;;;12.93;5.15;;;;;;;;;;5080046;28;20509;-53
2021/04/24 03:09:06;;;;;;;9.40;4.25;;;;;;;;;;5098192;28;20194;-52
2021/04/24 03:11:32;;;;;;;14.57;5.60;;;;;;;;;;5097190;28;20330;-51
2021/04/24 03:14:06;;;;;;;12.35;6.00;;;;;;;;;;5097820;28;20185;-54
2021/04/24 03:16:33;;;;;;;9.73;4.85;;;;;;;;;;5097850;28;20208;-57
2021/04/24 03:19:01;;;;;;;12.00;5.40;;;;;;;;;;5097732;28;20241;-51
2021/04/24 03:21:46;;;;;;;14.23;5.15;;;;;;;;;;5082164;28;20565;-55
2021/04/24 03:24:13;;;;;;;12.73;7.03;;;;;;;;;;5076655;28;20198;-52
2021/04/24 03:26:40;;;;;;;15.68;5.93;;;;;;;;;;5093430;28;20209;-51
2021/04/24 03:29:07;;;;;;;12.23;5.80;;;;;;;;;;5097794;28;20338;-53
2021/04/24 03:31:34;;;;;;;11.52;5.45;;;;;;;;;;5082025;28;20211;-56
2021/04/24 03:34:03;;;;;;;8.77;5.15;;;;;;;;;;5077260;28;20187;-52
2021/04/24 03:36:39;;;;;;;8.43;5.75;;;;;;;;;;5076828;28;20195;-55
2021/04/24 03:39:06;;;;;;;9.85;4.68;;;;;;;;;;5095549;28;20245;-51
2021/04/24 03:41:33;;;;;;;12.30;5.57;;;;;;;;;;5096903;28;20206;-57
2021/04/24 03:44:22;;;;;;;10.85;4.65;;;;;;;;;;5097399;28;20236;-55
2021/04/24 03:46:49;;;;;;;11.57;5.15;;;;;;;;;;5097004;28;20210;-52
2021/04/24 03:49:17;;;;;;;9.10;5.05;;;;;;;;;;5077667;28;20190;-55
2021/04/24 03:51:44;;;;;;;11.95;5.25;;;;;;;;;;5078258;28;20198;-54
2021/04/24 03:54:11;;;;;;;12.95;6.20;;;;;;;;;;5077237;28;20245;-54
2021/04/24 03:56:37;;;;;;;13.50;5.22;;;;;;;;;;5077292;28;20221;-54
2021/04/24 03:59:04;;;;;;;12.55;4.80;;;;;;;;;;5076788;28;20233;-55
2021/04/24 04:01:31;;;;;;;13.73;5.18;;;;;;;;;;5077031;28;20245;-57
2021/04/24 04:03:58;;;;;;;11.57;4.32;;;;;;;;;;5079367;28;20221;-56
2021/04/24 04:06:26;;;;;;;14.40;6.22;;;;;;;;;;5086663;28;20223;-54
2021/04/24 04:08:53;;;;;;;10.80;5.75;;;;;;;;;;5082090;28;20277;-56
2021/04/24 04:11:42;;;;;;;13.25;5.70;;;;;;;;;;5096477;28;20210;-57
2021/04/24 04:14:08;;;;;;;8.13;5.32;;;;;;;;;;5095750;28;20284;-54
2021/04/24 04:16:36;;;;;;;10.25;5.00;;;;;;;;;;5096927;28;20190;-54
2021/04/24 04:19:38;;;;;;;10.75;4.65;;;;;;;;;;5095549;28;20253;-57
2021/04/24 04:22:06;;;;;;;10.00;4.47;;;;;;;;;;5095789;28;20193;-50
2021/04/24 04:24:32;;;;;;;11.27;6.38;;;;;;;;;;5083607;28;20577;-54
2021/04/24 04:26:59;;;;;;;17.25;6.05;;;;;;;;;;5076404;28;20237;-55
2021/04/24 04:29:26;;;;;;;7.10;4.63;;;;;;;;;;5076589;28;20211;-56
2021/04/24 04:31:53;;;;;;;11.00;5.90;;;;;;;;;;5077837;28;20222;-55
2021/04/24 04:34:37;;;;;;;9.77;5.45;;;;;;;;;;5095994;28;20190;-58
2021/04/24 04:37:05;;;;;;;9.02;4.80;;;;;;;;;;5096048;28;20206;-58
2021/04/24 04:39:32;;;;;;;10.27;5.20;;;;;;;;;;5096669;28;20245;-54
2021/04/24 04:41:59;;;;;;;9.52;5.50;;;;;;;;;;5087817;28;20202;-57
2021/04/24 04:44:26;;;;;;;11.43;4.75;;;;;;;;;;5095036;28;20202;-53
2021/04/24 04:46:54;;;;;;;12.20;4.97;;;;;;;;;;5095654;28;20205;-51
2021/04/24 04:49:21;;;;;;;9.70;4.30;;;;;;;;;;5096401;28;20194;-54
2021/04/24 04:51:48;;;;;;;10.15;5.38;;;;;;;;;;5095876;28;20206;-55
2021/04/24 05:00:15;;;;;;;10.07;5.00;;;;;;;;;;5085563;28;20233;-55
2021/04/24 05:02:42;;;;;;;9.88;5.47;;;;;;;;;;5095733;28;20228;-51
2021/04/24 05:08:12;;;;;;;12.07;5.25;;;;;;;;;;5093794;28;20216;-51
2021/04/24 05:10:39;;;;;;;12.60;4.95;;;;;;;;;;5095274;28;20213;-54
2021/04/24 05:13:34;;;;;;;13.30;4.68;;;;;;;;;;5095337;28;20193;-49
2021/04/24 05:16:01;;;;;;;14.35;5.82;;;;;;;;;;5095883;28;20210;-60
2021/04/24 05:18:28;;;;;;;12.45;5.18;;;;;;;;;;5095568;28;20225;-54
2021/04/24 05:20:55;;;;;;;12.77;4.72;;;;;;;;;;5095534;28;20209;-55
2021/04/24 05:23:21;;;;;;;8.60;4.90;;;;;;;;;;5095212;28;20205;-55
2021/04/24 05:25:48;;;;;;;11.43;5.47;;;;;;;;;;5095163;28;20210;-55
2021/04/24 05:28:21;;;;;;;10.82;4.90;;;;;;;;;;5076120;28;20225;-51
2021/04/24 05:30:56;;;;;;;9.50;4.22;;;;;;;;;;5082978;28;20205;-57
2021/04/24 05:33:24;;;;;;;11.55;4.03;;;;;;;;;;5076742;28;20194;-58
2021/04/24 05:36:09;;;;;;;10.18;4.20;;;;;;;;;;5076185;28;20174;-54
2021/04/24 05:38:36;;;;;;;9.00;4.70;;;;;;;;;;5075448;28;20230;-54
2021/04/24 05:41:02;;;;;;;8.63;4.55;;;;;;;;;;5075364;28;20183;-58
2021/04/24 05:43:35;;;;;;;11.75;4.45;;;;;;;;;;5077362;28;20203;-54
2021/04/24 05:46:02;;;;;;;12.23;5.78;;;;;;;;;;5095125;28;20209;-57
2021/04/24 05:48:30;;;;;;;9.25;4.63;;;;;;;;;;5081902;28;20229;-51
2021/04/24 05:51:04;;;;;;;7.57;4.45;;;;;;;;;;5084194;28;20224;-53
2021/04/24 05:53:30;;;;;;;9.70;4.38;;;;;;;;;;5088378;28;20210;-53
2021/04/24 05:55:59;;;;;;;8.32;3.83;;;;;;;;;;5074599;28;20222;-54
2021/04/24 05:58:37;;;;;;;14.88;5.20;;;;;;;;;;5081392;28;20217;-56
2021/04/24 06:01:04;;;;;;;8.25;4.40;;;;;;;;;;5082487;28;20191;-54
2021/04/24 06:03:32;;;;;;;9.68;3.90;;;;;;;;;;5074897;28;20201;-57
2021/04/24 06:06:06;;;;;;;10.50;5.30;;;;;;;;;;5074369;28;20184;-56
2021/04/24 06:08:33;;;;;;;11.70;5.22;;;;;;;;;;5056020;28;20210;-59
2021/04/24 06:11:00;;;;;;;9.07;4.50;;;;;;;;;;5059358;28;20226;-57
2021/04/24 06:16:30;;;;;;;8.73;4.50;;;;;;;;;;5079080;28;20189;-57
2021/04/24 06:18:58;;;;;;;8.65;3.78;;;;;;;;;;5078646;28;20238;-59
2021/04/24 06:21:35;;;;;;;7.57;4.57;;;;;;;;;;5066936;28;20195;-57
2021/04/24 06:24:13;;;;;;;6.70;4.13;;;;;;;;;;5058670;28;20218;-58
2021/04/24 06:26:39;;;;;;;8.52;4.72;;;;;;;;;;5058408;28;20188;-53
2021/04/24 06:29:09;;;;;;;7.25;4.13;;;;;;;;;;5057978;28;20195;-56
2021/04/24 06:31:36;;;;;;;7.10;4.55;;;;;;;;;;5058158;28;20208;-52
2021/04/24 06:34:04;;;;;;;7.75;4.70;;;;;;;;;;5057967;28;20202;-53
2021/04/24 06:36:30;;;;;;;10.18;4.20;;;;;;;;;;5059654;28;20191;-58
2021/04/24 06:38:58;;;;;;;12.93;4.60;;;;;;;;;;5057525;28;20363;-57
2021/04/24 06:41:28;;;;;;;8.10;4.65;;;;;;;;;;5058027;28;20230;-56
2021/04/24 06:43:55;;;;;;;11.55;5.22;;;;;;;;;;5057717;28;20207;-57
2021/04/24 06:46:22;;;;;;;9.23;4.40;;;;;;;;;;5056780;28;20238;-56
2021/04/24 06:48:50;;;;;;;9.70;4.47;;;;;;;;;;5057910;28;20191;-53
2021/04/24 06:51:18;;;;;;;10.55;4.40;;;;;;;;;;5080201;28;20230;-54
2021/04/24 06:53:44;;;;;;;9.07;4.50;;;;;;;;;;5097201;28;20206;-53
2021/04/24 06:56:11;;;;;;;7.22;3.70;;;;;;;;;;5097040;28;20190;-56
2021/04/24 06:58:38;;;;;;;9.82;4.05;;;;;;;;;;5097410;28;20265;-51
2021/04/24 07:01:11;;;;;;;7.55;3.70;;;;;;;;;;5096973;28;20204;-58
2021/04/24 07:03:38;;;;;;;9.77;3.75;;;;;;;;;;5096655;28;20224;-53
2021/04/24 07:06:05;;;;;;;10.65;6.38;;;;;;;;;;5096916;28;20229;-55
2021/04/24 07:08:44;;;;;;;7.20;4.10;;;;;;;;;;5096965;28;20210;-53
2021/04/24 07:11:11;;;;;;;10.00;4.80;;;;;;;;;;5096975;28;20278;-58
2021/04/24 07:13:38;;;;;;;7.32;3.85;;;;;;;;;;5096966;28;20205;-56
2021/04/24 07:16:10;;;;;;;8.27;3.95;;;;;;;;;;5096264;28;20206;-59
2021/04/24 07:18:39;;;;;;;8.80;3.83;;;;;;;;;;5096447;28;20222;-53
2021/04/24 07:21:06;;;;;;;6.93;3.53;;;;;;;;;;5095861;28;20436;-58
2021/04/24 07:23:52;;;;;;;10.23;3.47;;;;;;;;;;5090931;28;20452;-56
2021/04/24 07:26:21;;;;;;;6.30;3.03;;;;;;;;;;5076733;28;20427;-60
2021/04/24 07:28:48;;;;;;;7.10;3.87;;;;;;;;;;5076062;28;20496;-55
2021/04/24 07:31:28;;;;;;;9.00;4.30;;;;;;;;;;5092350;28;20433;-57
2021/04/24 07:33:58;;;;;;;14.50;4.23;;;;;;;;;;5096566;28;20538;-56
2021/04/24 07:36:26;;;;;;;7.43;3.03;;;;;;;;;;5072320;28;20436;-55
2021/04/24 07:39:05;;;;;;;6.60;3.23;;;;;;;;;;5075692;28;20230;-58
2021/04/24 07:41:32;;;;;;;4.90;2.67;;;;;;;;;;5087730;28;20507;-60
2021/04/24 07:43:58;;;;;;;6.53;2.87;;;;;;;;;;5094568;28;20456;-57
2021/04/24 07:46:51;;;;;;;6.20;2.60;;;;;;;;;;5094920;28;20591;-56
2021/04/24 07:49:19;;;;;;;7.93;3.13;;;;;;;;;;5093304;28;20487;-59
2021/04/24 07:51:45;;;;;;;4.97;3.00;;;;;;;;;;5087583;28;20437;-55
2021/04/24 07:54:14;;;;;;;5.30;2.67;;;;;;;;;;5075557;28;20453;-58
2021/04/24 07:56:41;;;;;;;7.50;2.80;;;;;;;;;;5076107;28;20425;-52
2021/04/24 07:59:14;;;;;;;5.23;2.13;;;;;;;;;;5081217;28;20652;-59
2021/04/24 08:01:41;;;;;;;5.17;3.03;;;;;;;;;;5082692;28;20456;-58
2021/04/24 08:04:13;;;;;;;5.70;2.20;;;;;;;;;;5090234;28;20470;-59
2021/04/24 08:06:39;;;;;;;4.53;2.40;;;;;;;;;;5083725;28;20503;-58
2021/04/24 08:09:07;;;;;;;6.03;3.27;;;;;;;;;;5094844;28;20456;-53
2021/04/24 08:11:44;;;;;;;11.73;3.93;;;;;;;;;;5095605;28;20515;-54
2021/04/24 08:14:11;;;;;;;6.33;2.90;;;;;;;;;;5095031;28;20460;-54
2021/04/24 08:16:39;;;;;;;8.50;3.37;;;;;;;;;;5095520;28;20452;-55
2021/04/24 08:19:07;;;;;;;5.93;3.10;;;;;;;;;;5095558;28;20484;-55
2021/04/24 08:21:39;;;;;;;6.37;3.40;;;;;;;;;;5096156;28;20452;-50
2021/04/24 08:24:06;;;;;;;6.70;3.40;;;;;;;;;;5095959;28;20452;-56
2021/04/24 08:26:50;;;;;;;5.03;2.87;;;;;;;;;;5095456;28;20429;-59
2021/04/24 08:29:17;;;;;;;4.60;3.07;;;;;;;;;;5096084;28;20419;-55
2021/04/24 08:31:43;;;;;;;8.80;3.60;;;;;;;;;;5089005;28;20434;-59
2021/04/24 08:34:40;;;;;;;11.07;3.73;;;;;;;;;;5074357;28;20457;-55
2021/04/24 08:37:08;;;;;;;6.80;3.30;;;;;;;;;;5074928;28;20456;-58
2021/04/24 08:39:34;;;;;;;6.27;3.10;;;;;;;;;;5075007;28;20994;-57
2021/04/24 08:42:05;;;;;;;5.97;2.87;;;;;;;;;;5075114;28;20445;-55
2021/04/24 08:44:31;;;;;;;6.03;3.40;;;;;;;;;;5078706;28;20494;-53
2021/04/24 08:46:58;;;;;;;5.43;2.97;;;;;;;;;;5093778;28;20451;-55
2021/04/24 08:49:37;;;;;;;7.13;3.20;;;;;;;;;;5094430;28;20444;-54
2021/04/24 08:52:04;;;;;;;17.33;5.50;;;;;;;;;;5093599;28;20448;-52
2021/04/24 08:54:31;;;;;;;8.33;3.23;;;;;;;;;;5095377;28;20460;-50
2021/04/24 08:56:59;;;;;;;6.20;3.43;;;;;;;;;;5089963;28;20465;-54
2021/04/24 08:59:27;;;;;;;7.20;2.53;;;;;;;;;;5084423;28;20507;-55
2021/04/24 09:01:54;;;;;;;7.00;2.60;;;;;;;;;;5074322;28;20463;-56
2021/04/24 09:04:21;;;;;;;8.87;3.53;;;;;;;;;;5086637;28;20937;-57
2021/04/24 09:06:48;;;;;;;5.90;3.40;;;;;;;;;;5093403;28;20424;-57
2021/04/24 09:09:27;;;;;;;5.40;3.37;;;;;;;;;;5093708;28;20440;-52
2021/04/24 09:11:56;;;;;;;7.60;3.60;;;;;;;;;;5093743;28;20569;-56
2021/04/24 09:14:30;;;;;;;8.80;3.57;;;;;;;;;;5073573;28;20472;-53
2021/04/24 09:16:58;;;;;;;7.67;3.87;;;;;;;;;;5072762;28;20487;-59
2021/04/24 09:19:29;;;;;;;8.07;3.60;;;;;;;;;;5073921;28;20492;-59
2021/04/24 09:22:12;;;;;;;10.60;4.60;;;;;;;;;;5090297;28;20493;-57
2021/04/24 09:24:41;;;;;;;8.37;3.57;;;;;;;;;;5093424;28;20428;-59
2021/04/24 09:27:18;;;;;;;6.67;3.70;;;;;;;;;;5092917;28;20512;-53
2021/04/24 09:29:45;;;;;;;8.30;4.20;;;;;;;;;;5092769;28;20961;-59
2021/04/24 09:32:19;;;;;;;9.87;4.30;;;;;;;;;;5093171;28;20581;-55
2021/04/24 09:34:54;;;;;;;5.30;2.60;;;;;;;;;;5080641;28;20471;-60
2021/04/24 09:37:21;;;;;;;13.20;4.50;;;;;;;;;;5084562;28;20514;-56
2021/04/24 09:39:50;;;;;;;8.63;4.57;;;;;;;;;;5083311;28;20488;-58
2021/04/24 09:45:30;;;;;;;8.47;5.33;;;;;;;;;;5087293;28;20537;-54
2021/04/24 09:47:58;;;;;;;9.43;4.50;;;;;;;;;;5081736;28;20448;-55
2021/04/24 09:50:31;;;;;;;7.37;4.50;;;;;;;;;;5078316;28;20468;-55
2021/04/24 09:53:18;;;;;;;10.50;5.43;;;;;;;;;;5075654;28;20457;-58
2021/04/24 09:55:47;;;;;;;8.63;4.50;;;;;;;;;;5077808;28;20634;-56
2021/04/24 09:58:34;;;;;;;9.50;4.83;;;;;;;;;;5077108;28;20476;-54
2021/04/24 10:01:30;;;;;;;7.37;4.67;;;;;;;;;;5077091;28;20444;-57
2021/04/24 10:04:16;;;;;;;6.53;3.47;;;;;;;;;;5077455;28;20449;-57
2021/04/24 10:06:43;;;;;;;8.57;4.17;;;;;;;;;;5077813;28;20464;-59
2021/04/24 10:09:16;;;;;;;6.80;3.90;;;;;;;;;;5077012;28;20456;-57
2021/04/24 10:11:48;;;;;;;8.63;3.80;;;;;;;;;;5079167;28;20452;-59
2021/04/24 10:14:31;;;;;;;6.13;3.97;;;;;;;;;;5096717;28;20519;-58
2021/04/24 10:16:58;;;;;;;10.47;4.50;;;;;;;;;;5091620;28;20486;-59
2021/04/24 10:19:27;;;;;;;8.43;3.60;;;;;;;;;;5096476;28;20579;-53
2021/04/24 10:21:56;;;;;;;10.07;4.07;;;;;;;;;;5096595;28;20436;-59
2021/04/24 10:24:23;;;;;;;5.53;4.10;;;;;;;;;;5096692;28;20459;-55
2021/04/24 10:26:50;;;;;;;10.30;5.73;;;;;;;;;;5096099;28;20483;-59
2021/04/24 10:29:29;;;;;;;8.03;4.50;;;;;;;;;;5096215;28;20637;-54
2021/04/24 10:31:56;;;;;;;8.97;3.83;;;;;;;;;;5095089;28;20455;-55
2021/04/24 10:34:23;;;;;;;7.87;3.80;;;;;;;;;;5095811;28;20686;-60
2021/04/24 10:36:59;;;;;;;8.27;4.40;;;;;;;;;;5096997;28;20455;-61
2021/04/24 10:39:26;;;;;;;12.63;4.53;;;;;;;;;;5087310;28;20467;-55
2021/04/24 10:42:08;;;;;;;7.77;4.30;;;;;;;;;;5081909;28;20429;-58
2021/04/24 10:44:52;;;;;;;13.20;4.83;;;;;;;;;;5072913;28;20485;-55
2021/04/24 10:47:37;;;;;;;9.93;4.00;;;;;;;;;;5076407;28;20447;-58
2021/04/24 10:50:10;;;;;;;8.40;5.20;;;;;;;;;;5093207;28;20479;-52
2021/04/24 10:52:46;;;;;;;13.10;4.50;;;;;;;;;;5097052;28;20480;-57
2021/04/24 10:55:30;;;;;;;16.73;4.27;;;;;;;;;;5084529;28;20686;-56
2021/04/24 10:58:23;;;;;;;7.10;4.17;;;;;;;;;;5074853;28;20468;-55
2021/04/24 11:00:57;;;;;;;6.17;3.37;;;;;;;;;;5079098;28;20446;-51
2021/04/24 11:03:45;;;;;;;9.60;5.17;;;;;;;;;;5088594;28;20432;-57
2021/04/24 11:06:12;;;;;;;6.43;4.60;;;;;;;;;;5075539;28;20456;-53
2021/04/24 11:08:41;;;;;;;11.50;5.40;;;;;;;;;;5094407;28;20519;-57
2021/04/24 11:11:20;;;;;;;9.70;4.77;;;;;;;;;;5095245;28;20482;-56
2021/04/24 11:13:51;;;;;;;7.03;3.30;;;;;;;;;;5075670;28;20457;-59
2021/04/24 11:16:18;;;;;;;6.33;3.60;;;;;;;;;;5095524;28;20460;-54
2021/04/24 11:19:06;;;;;;;7.70;4.27;;;;;;;;;;5094468;28;20574;-54
2021/04/24 11:21:33;;;;;;;7.10;4.00;;;;;;;;;;5082906;28;20456;-52
2021/04/24 11:24:21;;;;;;;7.43;4.47;;;;;;;;;;5077860;28;20457;-55
2021/04/24 11:26:59;;;;;;;5.93;3.13;;;;;;;;;;5087608;28;20441;-48
2021/04/24 11:29:37;;;;;;;7.67;4.67;;;;;;;;;;5078532;28;20445;-54
2021/04/24 11:32:19;;;;;;;7.30;3.70;;;;;;;;;;5080496;28;20848;-54
2021/04/24 11:35:11;;;;;;;8.10;3.97;;;;;;;;;;5074718;28;20449;-60
2021/04/24 11:37:51;;;;;;;10.00;4.60;;;;;;;;;;5088874;28;20452;-54
2021/04/24 11:40:20;;;;;;;5.57;3.80;;;;;;;;;;5090914;28;20500;-57
2021/04/24 11:42:51;;;;;;;9.40;4.57;;;;;;;;;;5074878;28;20496;-54
2021/04/24 11:45:38;;;;;;;9.90;4.80;;;;;;;;;;5078000;28;20477;-59
2021/04/24 11:48:05;;;;;;;12.17;4.60;;;;;;;;;;5075354;28;20468;-57
2021/04/24 11:50:38;;;;;;;10.20;4.33;;;;;;;;;;5074329;28;20456;-55
2021/04/24 11:53:05;;;;;;;8.97;5.20;;;;;;;;;;5073669;28;20452;-60
2021/04/24 11:55:33;;;;;;;7.43;4.67;;;;;;;;;;5080999;28;20487;-56
2021/04/24 11:58:29;;;;;;;8.03;4.37;;;;;;;;;;5076852;28;20672;-52
2021/04/24 12:01:01;;;;;;;7.20;3.87;;;;;;;;;;5082804;28;20450;-58
2021/04/24 12:03:41;;;;;;;11.40;4.47;;;;;;;;;;5091685;28;20441;-59
2021/04/24 12:06:10;;;;;;;5.60;3.30;;;;;;;;;;5086456;28;20654;-51
2021/04/24 12:08:37;;;;;;;13.10;5.20;;;;;;;;;;5084820;28;20447;-52
2021/04/24 12:11:09;;;;;;;6.70;4.27;;;;;;;;;;5082885;28;20461;-54
2021/04/24 12:13:36;;;;;;;8.33;4.30;;;;;;;;;;5066518;28;20457;-55
2021/04/24 12:16:03;;;;;;;7.87;4.23;;;;;;;;;;5073250;28;20445;-57
2021/04/24 12:18:32;;;;;;;5.37;3.47;;;;;;;;;;5087944;28;20468;-56
2021/04/24 12:21:04;;;;;;;6.30;3.37;;;;;;;;;;5080104;28;20468;-54
2021/04/24 12:23:31;;;;;;;7.60;3.37;;;;;;;;;;5093493;28;20455;-53
2021/04/24 12:26:00;;;;;;;6.57;3.30;;;;;;;;;;5075819;28;20457;-59
2021/04/24 12:28:28;;;;;;;6.30;3.97;;;;;;;;;;5083330;28;20444;-54
2021/04/24 12:30:55;;;;;;;5.53;3.63;;;;;;;;;;5093518;28;20479;-59
2021/04/24 12:33:23;;;;;;;9.40;5.20;;;;;;;;;;5091368;28;20488;-60
2021/04/24 12:35:56;;;;;;;6.47;3.33;;;;;;;;;;5081126;28;20520;-57
2021/04/24 12:38:29;;;;;;;7.50;3.90;;;;;;;;;;5074821;28;20445;-55
2021/04/24 12:40:57;;;;;;;5.67;3.20;;;;;;;;;;5072919;28;20452;-56
2021/04/24 12:43:25;;;;;;;6.13;3.00;;;;;;;;;;5075945;28;20472;-57
2021/04/24 12:45:55;;;;;;;8.83;3.13;;;;;;;;;;5081793;28;20471;-57
2021/04/24 12:48:30;;;;;;;7.70;3.57;;;;;;;;;;5073461;28;20461;-56
2021/04/24 12:50:58;;;;;;;6.60;3.80;;;;;;;;;;5073304;28;20452;-58
2021/04/24 12:53:32;;;;;;;8.23;3.87;;;;;;;;;;5075686;28;20531;-56
2021/04/24 12:56:05;;;;;;;7.93;3.33;;;;;;;;;;5091121;28;20451;-56
2021/04/24 12:58:34;;;;;;;7.03;3.50;;;;;;;;;;5094695;28;20472;-57
2021/04/24 13:01:20;;;;;;;8.20;3.60;;;;;;;;;;5089395;28;20457;-56
2021/04/24 13:03:48;;;;;;;5.50;3.60;;;;;;;;;;5074004;28;20560;-56
2021/04/24 13:06:17;;;;;;;9.00;4.13;;;;;;;;;;5073757;28;20441;-59
2021/04/24 13:09:05;;;;;;;11.50;3.80;;;;;;;;;;5073619;28;20476;-57
2021/04/24 13:11:39;;;;;;;6.47;4.03;;;;;;;;;;5083604;28;20616;-57
2021/04/24 13:14:08;;;;;;;7.97;4.13;;;;;;;;;;5091639;28;20452;-59
2021/04/24 13:16:36;;;;;;;7.17;4.20;;;;;;;;;;5089843;28;20448;-57
2021/04/24 13:19:04;;;;;;;5.30;2.60;;;;;;;;;;5082698;28;20613;-55
2021/04/24 13:21:38;;;;;;;7.53;4.43;;;;;;;;;;5091034;28;20468;-57
2021/04/24 13:24:07;;;;;;;5.67;3.30;;;;;;;;;;5084920;28;20786;-58
2021/04/24 13:26:34;;;;;;;5.83;3.40;;;;;;;;;;5082628;28;20486;-59
2021/04/24 13:29:14;;;;;;;7.10;3.90;;;;;;;;;;5080923;28;20448;-58
2021/04/24 13:32:05;;;;;;;7.70;3.97;;;;;;;;;;5093693;28;20452;-60
2021/04/24 13:34:36;;;;;;;7.50;3.60;;;;;;;;;;5083240;28;20456;-56
2021/04/24 13:37:08;;;;;;;7.70;3.90;;;;;;;;;;5080235;28;20452;-60
2021/04/24 13:39:39;;;;;;;7.10;3.43;;;;;;;;;;5084298;28;20476;-56
2021/04/24 13:42:10;;;;;;;7.60;3.77;;;;;;;;;;5085716;28;20482;-56
2021/04/24 13:44:49;;;;;;;9.80;4.57;;;;;;;;;;5089116;28;20473;-54
2021/04/24 13:47:26;;;;;;;6.37;3.70;;;;;;;;;;5082822;28;20515;-55
2021/04/24 13:49:54;;;;;;;6.60;3.60;;;;;;;;;;5059788;28;20460;-52
2021/04/24 13:55:26;;;;;;;8.23;3.80;;;;;;;;;;5080566;28;20487;-53
2021/04/24 13:58:01;;;;;;;10.60;5.10;;;;;;;;;;5092598;28;20451;-52
2021/04/24 14:00:43;;;;;;;7.43;3.87;;;;;;;;;;5082330;28;20549;-58
2021/04/24 14:03:33;;;;;;;11.80;4.07;;;;;;;;;;5078006;28;20527;-56
2021/04/24 14:06:03;;;;;;;7.23;2.80;;;;;;;;;;5077780;28;20460;-57
2021/04/24 14:08:36;;;;;;;15.70;5.47;;;;;;;;;;5074494;28;20445;-55
2021/04/24 14:11:05;;;;;;;5.83;3.90;;;;;;;;;;5075737;28;20485;-55
2021/04/24 14:13:33;;;;;;;7.93;4.40;;;;;;;;;;5072333;28;20448;-55
2021/04/24 14:15:59;;;;;;;6.17;4.03;;;;;;;;;;5081212;28;20488;-49
2021/04/24 14:18:27;;;;;;;6.60;3.67;;;;;;;;;;5074478;28;20490;-55
2021/04/24 14:20:54;;;;;;;7.83;4.53;;;;;;;;;;5078407;28;20441;-55
2021/04/24 14:23:39;;;;;;;8.07;3.93;;;;;;;;;;5072813;28;20449;-59
2021/04/24 14:26:07;;;;;;;10.00;4.67;;;;;;;;;;5078304;28;20457;-54
2021/04/24 14:28:34;;;;;;;8.97;3.33;;;;;;;;;;5072770;28;20452;-53
2021/04/24 14:31:01;;;;;;;13.80;3.60;;;;;;;;;;5084036;28;20469;-54
2021/04/24 14:33:28;;;;;;;11.63;3.80;;;;;;;;;;5076041;28;20674;-56
2021/04/24 14:35:56;;;;;;;8.80;3.50;;;;;;;;;;5079250;28;20835;-57
2021/04/24 14:38:31;;;;;;;8.23;4.63;;;;;;;;;;5095175;28;20555;-61
2021/04/24 14:40:57;;;;;;;8.57;4.30;;;;;;;;;;5075876;28;20452;-59
2021/04/24 14:43:28;;;;;;;9.27;4.20;;;;;;;;;;5091145;28;20451;-56
2021/04/24 14:45:57;;;;;;;6.50;3.53;;;;;;;;;;5093706;28;20506;-60
2021/04/24 14:48:26;;;;;;;7.43;3.80;;;;;;;;;;5086180;28;20655;-60
2021/04/24 14:51:18;;;;;;;8.63;3.20;;;;;;;;;;5091697;28;20426;-59
2021/04/24 14:53:50;;;;;;;5.80;3.30;;;;;;;;;;5080490;28;20475;-55
2021/04/24 14:56:46;;;;;;;5.70;4.10;;;;;;;;;;5086013;28;20483;-56
2021/04/24 14:59:16;;;;;;;7.73;4.13;;;;;;;;;;5080699;28;20467;-54
2021/04/24 15:01:59;;;;;;;8.13;4.07;;;;;;;;;;5095380;28;20492;-59
2021/04/24 15:04:26;;;;;;;7.17;4.00;;;;;;;;;;5087615;28;20516;-60
2021/04/24 15:06:53;;;;;;;8.17;3.90;;;;;;;;;;5076863;28;20465;-58
2021/04/24 15:09:21;;;;;;;8.67;3.97;;;;;;;;;;5086795;28;20464;-59
2021/04/24 15:11:48;;;;;;;8.50;4.70;;;;;;;;;;5085333;28;20436;-60
2021/04/24 15:14:17;;;;;;;7.97;4.47;;;;;;;;;;5079869;28;20428;-59
2021/04/24 15:16:46;;;;;;;5.63;4.00;;;;;;;;;;5086854;28;20452;-57
2021/04/24 15:19:21;;;;;;;7.67;3.73;;;;;;;;;;5087176;28;20507;-55
2021/04/24 15:21:52;;;;;;;6.47;3.47;;;;;;;;;;5082238;28;20492;-57